Time;durP1;ratioP1;P1;durP2;ratioP2;P2;SDS_P1;SDS_P2;PMS_P1;PMS_P2;Temp;Humidity;BMP_temperature;BMP_pressure;BME280_temperature;BME280_humidity;BME280_pressure;Samples;Min_cycle;Max_cycle;Signal;HPM_P1;HPM_P2
2022/07/31 00:00:32;;;;;;;10.02;4.72;;;;;;;;;;5073836;28;20040;-72
2022/07/31 00:02:58;;;;;;;10.13;4.45;;;;;;;;;;5072128;28;20041;-72
2022/07/31 00:05:25;;;;;;;7.28;4.00;;;;;;;;;;5073475;28;20509;-72
2022/07/31 00:07:53;;;;;;;7.30;3.80;;;;;;;;;;5074174;28;20040;-73
2022/07/31 00:10:19;;;;;;;10.07;4.05;;;;;;;;;;5071879;28;20052;-72
2022/07/31 00:12:45;;;;;;;8.25;3.58;;;;;;;;;;5075444;28;20493;-72
2022/07/31 00:15:11;;;;;;;7.63;3.63;;;;;;;;;;5076235;28;20045;-73
2022/07/31 00:17:38;;;;;;;7.35;3.50;;;;;;;;;;5071921;28;20079;-73
2022/07/31 00:20:05;;;;;;;8.23;3.72;;;;;;;;;;5073860;28;20060;-73
2022/07/31 00:22:31;;;;;;;8.43;3.45;;;;;;;;;;5072066;28;20048;-72
2022/07/31 00:24:57;;;;;;;7.80;3.45;;;;;;;;;;5076247;28;20051;-72
2022/07/31 00:27:23;;;;;;;6.68;3.35;;;;;;;;;;5075979;28;20079;-72
2022/07/31 00:29:49;;;;;;;7.90;3.55;;;;;;;;;;5076001;28;20076;-72
2022/07/31 00:32:15;;;;;;;8.57;3.58;;;;;;;;;;5073565;28;20505;-72
2022/07/31 00:34:41;;;;;;;7.47;3.60;;;;;;;;;;5072785;28;20070;-72
2022/07/31 00:37:08;;;;;;;8.15;3.70;;;;;;;;;;5073981;28;20127;-72
2022/07/31 00:39:35;;;;;;;7.10;3.30;;;;;;;;;;5074613;28;20084;-71
2022/07/31 00:42:01;;;;;;;7.95;3.67;;;;;;;;;;5076079;28;20199;-72
2022/07/31 00:44:27;;;;;;;6.43;3.38;;;;;;;;;;5074968;28;20036;-72
2022/07/31 00:46:53;;;;;;;9.15;3.67;;;;;;;;;;5071595;28;20087;-72
2022/07/31 00:49:20;;;;;;;8.73;3.80;;;;;;;;;;5072478;28;20037;-72
2022/07/31 00:51:46;;;;;;;7.55;3.38;;;;;;;;;;5073815;28;20060;-72
2022/07/31 00:54:14;;;;;;;6.68;3.50;;;;;;;;;;5056384;28;20533;-72
2022/07/31 00:56:40;;;;;;;8.43;4.03;;;;;;;;;;5074567;28;20040;-71
2022/07/31 00:59:06;;;;;;;6.80;3.42;;;;;;;;;;5074984;28;20048;-71
2022/07/31 01:01:32;;;;;;;7.50;3.83;;;;;;;;;;5074920;28;20162;-71
2022/07/31 01:03:58;;;;;;;6.43;4.03;;;;;;;;;;5070923;28;20105;-73
2022/07/31 01:06:24;;;;;;;8.00;4.40;;;;;;;;;;5071789;28;21461;-72
2022/07/31 01:08:50;;;;;;;7.68;4.50;;;;;;;;;;5072871;28;20436;-73
2022/07/31 01:11:24;;;;;;;10.00;4.70;;;;;;;;;;5074410;28;20124;-72
2022/07/31 01:13:58;;;;;;;7.93;4.20;;;;;;;;;;5072045;28;20489;-72
2022/07/31 01:16:27;;;;;;;13.52;4.47;;;;;;;;;;5074400;28;20402;-73
2022/07/31 01:18:55;;;;;;;8.13;4.18;;;;;;;;;;5069597;28;20051;-72
2022/07/31 01:21:26;;;;;;;8.45;4.93;;;;;;;;;;5068947;28;20047;-72
2022/07/31 01:23:59;;;;;;;7.63;4.32;;;;;;;;;;5075032;28;20406;-72
2022/07/31 01:26:37;;;;;;;8.30;4.35;;;;;;;;;;5073569;28;20045;-72
2022/07/31 01:29:08;;;;;;;12.93;4.75;;;;;;;;;;5074346;28;20086;-72
2022/07/31 01:31:36;;;;;;;8.32;4.10;;;;;;;;;;5073618;28;20052;-71
2022/07/31 01:34:20;;;;;;;7.50;4.18;;;;;;;;;;5071420;28;20098;-71
2022/07/31 01:36:49;;;;;;;7.38;4.35;;;;;;;;;;5061724;28;20037;-71
2022/07/31 01:39:16;;;;;;;9.30;4.35;;;;;;;;;;5074529;28;20044;-71
2022/07/31 01:41:45;;;;;;;8.77;4.53;;;;;;;;;;5073096;28;20056;-71
2022/07/31 01:44:13;;;;;;;10.70;4.72;;;;;;;;;;5073591;28;20044;-71
2022/07/31 01:46:39;;;;;;;7.13;4.47;;;;;;;;;;5072337;28;20043;-71
2022/07/31 01:49:06;;;;;;;10.18;4.65;;;;;;;;;;5071270;28;20059;-70
2022/07/31 01:51:33;;;;;;;7.15;4.53;;;;;;;;;;5055502;28;20501;-71
2022/07/31 01:54:00;;;;;;;10.05;4.68;;;;;;;;;;5070215;28;20056;-71
2022/07/31 01:56:27;;;;;;;8.45;4.43;;;;;;;;;;5074298;28;20052;-71
2022/07/31 01:58:54;;;;;;;9.02;4.45;;;;;;;;;;5071866;28;20040;-71
2022/07/31 02:01:22;;;;;;;7.30;5.13;;;;;;;;;;5071331;28;20048;-71
2022/07/31 02:03:48;;;;;;;8.57;4.13;;;;;;;;;;5070068;28;20128;-71
2022/07/31 02:06:16;;;;;;;7.90;4.40;;;;;;;;;;5071861;28;20040;-71
2022/07/31 02:08:47;;;;;;;6.30;4.20;;;;;;;;;;5071030;28;20044;-70
2022/07/31 02:11:14;;;;;;;9.43;4.57;;;;;;;;;;5070472;28;20040;-71
2022/07/31 02:13:40;;;;;;;6.93;4.30;;;;;;;;;;5072051;28;20051;-71
2022/07/31 02:16:06;;;;;;;7.45;4.15;;;;;;;;;;5074015;28;20123;-72
2022/07/31 02:18:33;;;;;;;6.93;3.92;;;;;;;;;;5070888;28;20044;-72
2022/07/31 02:21:00;;;;;;;8.88;4.43;;;;;;;;;;5073692;28;20040;-72
2022/07/31 02:23:26;;;;;;;7.03;4.18;;;;;;;;;;5069182;28;20040;-72
2022/07/31 02:25:52;;;;;;;9.68;4.20;;;;;;;;;;5073551;28;20059;-72
2022/07/31 02:28:21;;;;;;;7.38;4.10;;;;;;;;;;5073684;28;20048;-72
2022/07/31 02:30:48;;;;;;;8.23;4.15;;;;;;;;;;5071841;28;20119;-73
2022/07/31 02:33:17;;;;;;;9.85;4.65;;;;;;;;;;5071028;28;20086;-72
2022/07/31 02:35:44;;;;;;;6.13;4.07;;;;;;;;;;5072233;28;20040;-72
2022/07/31 02:38:11;;;;;;;6.55;4.10;;;;;;;;;;5072356;28;20046;-72
2022/07/31 02:40:37;;;;;;;7.72;4.50;;;;;;;;;;5071993;28;20071;-72
2022/07/31 02:43:03;;;;;;;8.27;4.57;;;;;;;;;;5072875;28;20050;-71
2022/07/31 02:45:29;;;;;;;9.20;4.63;;;;;;;;;;5072458;28;20048;-71
2022/07/31 02:47:56;;;;;;;8.43;5.05;;;;;;;;;;5068563;28;20045;-71
2022/07/31 02:50:22;;;;;;;8.05;4.43;;;;;;;;;;5072350;28;20040;-72
2022/07/31 02:52:48;;;;;;;7.68;4.25;;;;;;;;;;5069936;28;20044;-71
2022/07/31 02:55:15;;;;;;;10.63;4.53;;;;;;;;;;5053263;28;20041;-72
2022/07/31 02:57:41;;;;;;;7.22;4.40;;;;;;;;;;5053032;28;20052;-72
2022/07/31 03:00:21;;;;;;;10.30;4.60;;;;;;;;;;5060039;28;20064;-72
2022/07/31 03:02:47;;;;;;;12.32;4.95;;;;;;;;;;5056466;28;20044;-72
2022/07/31 03:05:14;;;;;;;9.43;4.38;;;;;;;;;;5069622;28;20521;-72
2022/07/31 03:07:40;;;;;;;7.18;4.15;;;;;;;;;;5072845;28;20044;-72
2022/07/31 03:10:06;;;;;;;9.18;4.80;;;;;;;;;;5071927;28;20387;-71
2022/07/31 03:12:33;;;;;;;8.40;3.97;;;;;;;;;;5073040;28;20051;-72
2022/07/31 03:14:59;;;;;;;7.93;3.65;;;;;;;;;;5070839;28;20037;-72
2022/07/31 03:17:26;;;;;;;7.65;4.22;;;;;;;;;;5069315;28;20398;-72
2022/07/31 03:19:52;;;;;;;8.15;4.60;;;;;;;;;;5072792;28;20045;-72
2022/07/31 03:22:18;;;;;;;8.95;4.88;;;;;;;;;;5073026;28;20190;-72
2022/07/31 03:24:44;;;;;;;7.03;4.72;;;;;;;;;;5071522;28;20047;-72
2022/07/31 03:27:10;;;;;;;7.68;5.25;;;;;;;;;;5070441;28;20055;-72
2022/07/31 03:29:37;;;;;;;10.70;5.07;;;;;;;;;;5069375;28;20128;-72
2022/07/31 03:32:04;;;;;;;9.93;4.57;;;;;;;;;;5072065;28;20037;-71
2022/07/31 03:34:30;;;;;;;8.00;4.80;;;;;;;;;;5072721;28;20048;-72
2022/07/31 03:36:57;;;;;;;8.02;4.85;;;;;;;;;;5071995;28;20044;-72
2022/07/31 03:39:24;;;;;;;9.73;5.30;;;;;;;;;;5067964;28;20056;-72
2022/07/31 03:41:50;;;;;;;7.88;4.95;;;;;;;;;;5072037;28;20054;-71
2022/07/31 03:44:16;;;;;;;9.20;4.63;;;;;;;;;;5072542;28;20402;-72
2022/07/31 03:46:42;;;;;;;8.75;4.90;;;;;;;;;;5071098;28;20048;-73
2022/07/31 03:49:09;;;;;;;8.38;4.78;;;;;;;;;;5071115;28;20043;-72
2022/07/31 03:51:35;;;;;;;8.00;4.90;;;;;;;;;;5071949;28;20052;-72
2022/07/31 03:54:01;;;;;;;10.48;5.22;;;;;;;;;;5072206;28;20135;-72
2022/07/31 03:56:27;;;;;;;7.57;4.95;;;;;;;;;;5067305;28;20072;-71
2022/07/31 03:58:54;;;;;;;9.43;5.28;;;;;;;;;;5069817;28;20044;-71
2022/07/31 04:01:20;;;;;;;7.75;4.75;;;;;;;;;;5072261;28;20101;-72
2022/07/31 04:03:46;;;;;;;7.72;5.45;;;;;;;;;;5063111;28;20459;-72
2022/07/31 04:06:12;;;;;;;8.65;5.05;;;;;;;;;;5061273;28;20044;-72
2022/07/31 04:08:38;;;;;;;8.07;4.93;;;;;;;;;;5057636;28;20178;-72
2022/07/31 04:11:04;;;;;;;8.35;5.18;;;;;;;;;;5070802;28;20116;-71
2022/07/31 04:13:30;;;;;;;7.40;5.35;;;;;;;;;;5072113;28;20480;-72
2022/07/31 04:15:56;;;;;;;9.57;4.90;;;;;;;;;;5068993;28;20391;-71
2022/07/31 04:18:22;;;;;;;12.98;5.20;;;;;;;;;;5067695;28;20105;-71
2022/07/31 04:20:48;;;;;;;8.48;5.30;;;;;;;;;;5064577;28;20124;-72
2022/07/31 04:23:15;;;;;;;8.07;5.43;;;;;;;;;;5072187;28;20051;-72
2022/07/31 04:25:41;;;;;;;11.73;5.47;;;;;;;;;;5070246;28;20080;-71
2022/07/31 04:28:07;;;;;;;9.98;5.70;;;;;;;;;;5070874;28;20076;-71
2022/07/31 04:30:33;;;;;;;9.15;4.90;;;;;;;;;;5073762;28;20051;-71
2022/07/31 04:32:59;;;;;;;7.55;4.90;;;;;;;;;;5074610;28;20037;-72
2022/07/31 04:35:25;;;;;;;9.02;4.68;;;;;;;;;;5075391;28;20041;-71
2022/07/31 04:37:51;;;;;;;7.95;4.80;;;;;;;;;;5074376;28;20177;-72
2022/07/31 04:40:17;;;;;;;7.32;4.80;;;;;;;;;;5074613;28;20140;-72
2022/07/31 04:42:43;;;;;;;8.18;5.18;;;;;;;;;;5073177;28;20106;-72
2022/07/31 04:45:09;;;;;;;7.82;4.75;;;;;;;;;;5074758;28;20509;-72
2022/07/31 04:47:36;;;;;;;8.25;4.68;;;;;;;;;;5072315;28;20048;-72
2022/07/31 04:50:02;;;;;;;8.15;4.50;;;;;;;;;;5073711;28;20052;-72
2022/07/31 04:52:28;;;;;;;10.70;5.10;;;;;;;;;;5074189;28;20112;-72
2022/07/31 04:54:54;;;;;;;7.18;4.68;;;;;;;;;;5072276;28;20124;-71
2022/07/31 04:57:20;;;;;;;10.30;4.93;;;;;;;;;;5072228;28;20499;-71
2022/07/31 04:59:46;;;;;;;8.88;4.90;;;;;;;;;;5072592;28;20101;-72
2022/07/31 05:02:12;;;;;;;8.93;5.28;;;;;;;;;;5074084;28;20055;-71
2022/07/31 05:04:38;;;;;;;7.72;4.90;;;;;;;;;;5074417;28;20040;-72
2022/07/31 05:07:04;;;;;;;9.70;5.13;;;;;;;;;;5073824;28;20514;-72
2022/07/31 05:09:32;;;;;;;7.80;4.63;;;;;;;;;;5070522;28;20047;-72
2022/07/31 05:11:58;;;;;;;11.50;5.47;;;;;;;;;;5070606;28;20519;-71
2022/07/31 05:14:24;;;;;;;9.73;5.93;;;;;;;;;;5073999;28;20076;-72
2022/07/31 05:16:50;;;;;;;8.18;5.00;;;;;;;;;;5073683;28;20055;-72
2022/07/31 05:19:16;;;;;;;7.40;4.80;;;;;;;;;;5073980;28;20123;-72
2022/07/31 05:21:43;;;;;;;9.32;5.20;;;;;;;;;;5073981;28;20048;-72
2022/07/31 05:24:09;;;;;;;11.05;4.85;;;;;;;;;;5073832;28;20040;-72
2022/07/31 05:26:35;;;;;;;7.95;4.57;;;;;;;;;;5071948;28;20049;-71
2022/07/31 05:29:02;;;;;;;6.88;4.70;;;;;;;;;;5070119;28;20490;-71
2022/07/31 05:31:28;;;;;;;9.25;4.95;;;;;;;;;;5074424;28;20056;-71
2022/07/31 05:33:56;;;;;;;8.13;4.43;;;;;;;;;;5074773;28;20053;-72
2022/07/31 05:36:22;;;;;;;8.23;4.97;;;;;;;;;;5074604;28;20080;-71
2022/07/31 05:38:48;;;;;;;7.25;4.70;;;;;;;;;;5065705;28;20080;-72
2022/07/31 05:41:15;;;;;;;8.32;4.88;;;;;;;;;;5056462;28;20465;-72
2022/07/31 05:43:41;;;;;;;10.88;4.78;;;;;;;;;;5073688;28;20498;-72
2022/07/31 05:46:07;;;;;;;13.73;4.90;;;;;;;;;;5073166;28;20056;-72
2022/07/31 05:48:33;;;;;;;9.15;4.68;;;;;;;;;;5072855;28;20086;-72
2022/07/31 05:50:59;;;;;;;8.57;4.82;;;;;;;;;;5074154;28;20048;-71
2022/07/31 05:53:26;;;;;;;7.95;4.70;;;;;;;;;;5039148;28;20384;-72
2022/07/31 05:55:52;;;;;;;8.98;4.82;;;;;;;;;;5056246;28;20070;-72
2022/07/31 05:58:18;;;;;;;10.35;4.78;;;;;;;;;;5051153;28;20044;-71
2022/07/31 06:00:45;;;;;;;10.77;4.53;;;;;;;;;;5072816;28;20036;-71
2022/07/31 06:03:11;;;;;;;8.20;4.88;;;;;;;;;;5071370;28;22060;-71
2022/07/31 06:05:38;;;;;;;8.45;4.53;;;;;;;;;;5072609;28;20125;-71
2022/07/31 06:08:04;;;;;;;8.75;4.63;;;;;;;;;;5065286;28;20052;-71
2022/07/31 06:10:30;;;;;;;7.68;4.55;;;;;;;;;;5073246;28;20044;-71
2022/07/31 06:12:56;;;;;;;8.60;4.55;;;;;;;;;;5072657;28;21023;-72
2022/07/31 06:15:22;;;;;;;11.05;4.25;;;;;;;;;;5071191;28;20036;-71
2022/07/31 06:17:48;;;;;;;10.68;4.43;;;;;;;;;;5071657;28;20055;-71
2022/07/31 06:20:14;;;;;;;8.15;4.45;;;;;;;;;;5073691;28;20119;-71
2022/07/31 06:22:44;;;;;;;8.82;4.25;;;;;;;;;;5073759;28;20124;-72
2022/07/31 06:25:11;;;;;;;8.00;4.03;;;;;;;;;;5071662;28;20071;-71
2022/07/31 06:27:37;;;;;;;9.35;4.00;;;;;;;;;;5067705;28;20123;-72
2022/07/31 06:30:04;;;;;;;8.23;3.75;;;;;;;;;;5067334;28;20455;-72
2022/07/31 06:32:30;;;;;;;10.00;3.67;;;;;;;;;;5070538;28;20062;-72
2022/07/31 06:34:56;;;;;;;8.93;3.58;;;;;;;;;;5068328;28;20406;-72
2022/07/31 06:37:23;;;;;;;7.78;3.60;;;;;;;;;;5063769;28;20056;-71
2022/07/31 06:39:49;;;;;;;7.88;3.58;;;;;;;;;;5066908;28;20070;-72
2022/07/31 06:42:18;;;;;;;15.40;4.28;;;;;;;;;;5040461;28;20045;-72
2022/07/31 06:44:44;;;;;;;6.97;3.40;;;;;;;;;;5072047;28;20127;-72
2022/07/31 06:47:10;;;;;;;7.75;3.50;;;;;;;;;;5065926;28;20487;-72
2022/07/31 06:49:36;;;;;;;5.20;3.20;;;;;;;;;;5071786;28;20402;-72
2022/07/31 06:52:03;;;;;;;8.90;3.67;;;;;;;;;;5068822;28;20052;-71
2022/07/31 06:54:29;;;;;;;6.75;3.42;;;;;;;;;;5069225;28;20490;-72
2022/07/31 06:56:55;;;;;;;8.25;3.60;;;;;;;;;;5071247;28;20051;-72
2022/07/31 06:59:21;;;;;;;8.70;3.40;;;;;;;;;;5067772;28;20056;-72
2022/07/31 07:01:47;;;;;;;7.22;3.38;;;;;;;;;;5071820;28;20049;-72
2022/07/31 07:04:13;;;;;;;6.90;3.47;;;;;;;;;;5068443;28;20056;-72
2022/07/31 07:06:39;;;;;;;7.45;3.28;;;;;;;;;;5068234;28;20421;-72
2022/07/31 07:09:05;;;;;;;5.75;3.40;;;;;;;;;;5053686;28;20098;-72
2022/07/31 07:11:31;;;;;;;8.75;3.67;;;;;;;;;;5072706;28;20047;-72
2022/07/31 07:13:57;;;;;;;7.97;3.60;;;;;;;;;;5072751;28;20533;-72
2022/07/31 07:16:23;;;;;;;7.60;3.35;;;;;;;;;;5071500;28;20048;-72
2022/07/31 07:18:49;;;;;;;7.45;3.55;;;;;;;;;;5072720;28;20044;-72
2022/07/31 07:21:15;;;;;;;6.95;3.22;;;;;;;;;;5071520;28;20146;-72
2022/07/31 07:23:41;;;;;;;6.55;3.50;;;;;;;;;;5072405;28;20048;-72
2022/07/31 07:26:07;;;;;;;6.55;3.40;;;;;;;;;;5072893;28;20052;-72
2022/07/31 07:28:34;;;;;;;7.18;3.38;;;;;;;;;;5071972;28;20086;-72
2022/07/31 07:31:00;;;;;;;8.80;3.45;;;;;;;;;;5071966;28;20040;-72
2022/07/31 07:33:26;;;;;;;6.68;3.60;;;;;;;;;;5071082;28;20128;-72
2022/07/31 07:35:52;;;;;;;6.88;3.60;;;;;;;;;;5071408;28;20056;-72
2022/07/31 07:38:18;;;;;;;8.43;3.70;;;;;;;;;;5064439;28;20048;-72
2022/07/31 07:40:44;;;;;;;7.00;3.60;;;;;;;;;;5069474;28;20037;-73
2022/07/31 07:43:10;;;;;;;9.52;3.55;;;;;;;;;;5071620;28;20452;-72
2022/07/31 07:45:36;;;;;;;8.05;3.58;;;;;;;;;;5070937;28;20542;-73
2022/07/31 07:48:02;;;;;;;7.32;3.33;;;;;;;;;;5071275;28;20517;-72
2022/07/31 07:50:28;;;;;;;7.18;3.75;;;;;;;;;;5071427;28;20478;-72
2022/07/31 07:52:54;;;;;;;8.13;3.88;;;;;;;;;;5069136;28;20465;-73
2022/07/31 07:55:20;;;;;;;9.23;3.50;;;;;;;;;;5072515;28;20132;-72
2022/07/31 07:57:46;;;;;;;9.18;3.60;;;;;;;;;;5069701;28;20076;-72
2022/07/31 08:00:13;;;;;;;7.00;3.72;;;;;;;;;;5054025;28;20029;-72
2022/07/31 08:02:40;;;;;;;8.10;3.45;;;;;;;;;;5060928;28;20042;-72
2022/07/31 08:05:06;;;;;;;7.88;3.90;;;;;;;;;;5059813;28;20051;-72
2022/07/31 08:07:34;;;;;;;8.57;3.85;;;;;;;;;;5076372;28;20489;-72
2022/07/31 08:10:01;;;;;;;8.38;3.85;;;;;;;;;;5075789;28;20059;-72
2022/07/31 08:12:27;;;;;;;8.15;3.92;;;;;;;;;;5075343;28;20052;-72
2022/07/31 08:14:53;;;;;;;10.30;4.05;;;;;;;;;;5075367;28;20045;-72
2022/07/31 08:17:19;;;;;;;6.22;4.05;;;;;;;;;;5074131;28;20114;-72
2022/07/31 08:19:45;;;;;;;7.68;4.50;;;;;;;;;;5075403;28;20452;-72
2022/07/31 08:22:12;;;;;;;7.60;4.38;;;;;;;;;;5075910;28;20062;-72
2022/07/31 08:24:38;;;;;;;10.70;4.75;;;;;;;;;;5072813;28;20449;-72
2022/07/31 08:27:23;;;;;;;7.13;4.47;;;;;;;;;;5075462;28;20119;-72
2022/07/31 08:29:49;;;;;;;7.13;4.80;;;;;;;;;;5073752;28;20449;-72
2022/07/31 08:32:16;;;;;;;8.13;5.07;;;;;;;;;;5063161;28;20044;-73
2022/07/31 08:34:42;;;;;;;9.60;5.10;;;;;;;;;;5074599;28;20405;-72
2022/07/31 08:37:08;;;;;;;9.80;5.70;;;;;;;;;;5068846;28;20036;-72
2022/07/31 08:39:35;;;;;;;9.60;4.90;;;;;;;;;;5071901;28;20045;-72
2022/07/31 08:42:05;;;;;;;8.63;5.40;;;;;;;;;;5069071;28;20052;-72
2022/07/31 08:44:31;;;;;;;9.35;5.20;;;;;;;;;;5055348;28;20509;-72
2022/07/31 08:46:57;;;;;;;10.13;6.03;;;;;;;;;;5065011;28;20032;-72
2022/07/31 08:49:25;;;;;;;11.63;6.55;;;;;;;;;;5073310;28;20098;-72
2022/07/31 08:51:51;;;;;;;8.88;6.13;;;;;;;;;;5073522;28;20048;-72
2022/07/31 08:54:17;;;;;;;10.27;6.32;;;;;;;;;;5070626;28;20118;-72
2022/07/31 08:56:45;;;;;;;7.93;5.78;;;;;;;;;;5067863;28;20464;-72
2022/07/31 08:59:11;;;;;;;9.43;6.50;;;;;;;;;;5071613;28;20049;-70
2022/07/31 09:01:37;;;;;;;9.55;6.35;;;;;;;;;;5064904;28;20452;-72
2022/07/31 09:04:03;;;;;;;9.18;5.82;;;;;;;;;;5069562;28;20139;-72
2022/07/31 09:06:29;;;;;;;8.48;5.97;;;;;;;;;;5074531;28;20051;-72
2022/07/31 09:08:56;;;;;;;11.27;6.80;;;;;;;;;;5073208;28;20052;-72
2022/07/31 09:11:22;;;;;;;9.60;6.20;;;;;;;;;;5067976;28;20037;-72
2022/07/31 09:13:55;;;;;;;9.55;6.03;;;;;;;;;;5071146;28;20041;-72
2022/07/31 09:16:21;;;;;;;11.93;6.13;;;;;;;;;;5073308;28;20072;-72
2022/07/31 09:19:01;;;;;;;11.57;7.32;;;;;;;;;;5070080;28;20076;-72
2022/07/31 09:21:37;;;;;;;9.55;6.00;;;;;;;;;;5088453;28;20054;-73
2022/07/31 09:24:03;;;;;;;11.70;6.38;;;;;;;;;;5077560;28;20462;-72
2022/07/31 09:26:33;;;;;;;10.63;6.13;;;;;;;;;;5071003;28;20044;-72
2022/07/31 09:28:59;;;;;;;11.38;6.45;;;;;;;;;;5070694;28;20037;-72
2022/07/31 09:31:31;;;;;;;9.63;5.93;;;;;;;;;;5070182;28;20127;-73
2022/07/31 09:33:57;;;;;;;10.40;6.30;;;;;;;;;;5072927;28;20053;-72
2022/07/31 09:36:23;;;;;;;10.30;6.18;;;;;;;;;;5072807;28;20123;-72
2022/07/31 09:38:50;;;;;;;9.32;6.47;;;;;;;;;;5072421;28;20047;-72
2022/07/31 09:41:17;;;;;;;9.48;6.32;;;;;;;;;;5066160;28;20402;-72
2022/07/31 09:43:53;;;;;;;10.70;6.63;;;;;;;;;;5049276;28;20049;-72
2022/07/31 09:46:19;;;;;;;9.52;6.63;;;;;;;;;;5071318;28;20075;-72
2022/07/31 09:48:52;;;;;;;11.68;6.55;;;;;;;;;;5067098;28;20094;-72
2022/07/31 09:51:18;;;;;;;9.20;6.50;;;;;;;;;;5063820;28;20052;-72
2022/07/31 09:53:45;;;;;;;11.00;6.57;;;;;;;;;;5065746;28;20044;-72
2022/07/31 09:56:13;;;;;;;8.45;7.03;;;;;;;;;;5066170;28;20555;-72
2022/07/31 09:58:40;;;;;;;10.55;6.78;;;;;;;;;;5066402;28;20079;-72
2022/07/31 10:01:10;;;;;;;10.45;7.93;;;;;;;;;;5071988;28;20083;-72
2022/07/31 10:03:37;;;;;;;10.18;7.60;;;;;;;;;;5073212;28;20052;-72
2022/07/31 10:06:04;;;;;;;10.60;7.82;;;;;;;;;;5073951;28;20048;-72
2022/07/31 10:08:33;;;;;;;12.77;7.82;;;;;;;;;;5068044;28;20045;-73
2022/07/31 10:10:59;;;;;;;9.77;8.23;;;;;;;;;;5073298;28;20056;-73
2022/07/31 10:13:25;;;;;;;14.38;8.68;;;;;;;;;;5070688;28;20044;-73
2022/07/31 10:15:53;;;;;;;13.35;8.30;;;;;;;;;;5061916;28;20049;-72
2022/07/31 10:18:21;;;;;;;11.05;8.10;;;;;;;;;;5061971;28;20131;-72
2022/07/31 10:20:51;;;;;;;11.88;8.27;;;;;;;;;;5061117;28;20048;-72
2022/07/31 10:23:21;;;;;;;11.47;8.63;;;;;;;;;;5066160;28;20753;-73
2022/07/31 10:25:58;;;;;;;10.13;8.35;;;;;;;;;;5057935;28;20502;-73
2022/07/31 10:28:24;;;;;;;12.95;9.13;;;;;;;;;;5065555;28;20037;-72
2022/07/31 10:30:50;;;;;;;12.73;9.10;;;;;;;;;;5064968;28;20040;-72
2022/07/31 10:33:17;;;;;;;10.98;8.95;;;;;;;;;;5063771;28;20071;-73
2022/07/31 10:36:02;;;;;;;11.80;9.50;;;;;;;;;;5062378;28;20770;-72
2022/07/31 10:38:39;;;;;;;11.45;9.13;;;;;;;;;;5063022;28;20037;-72
2022/07/31 10:41:17;;;;;;;11.70;8.75;;;;;;;;;;5063830;28;20059;-72
2022/07/31 10:44:06;;;;;;;10.73;9.18;;;;;;;;;;5065390;28;20486;-72
2022/07/31 10:46:32;;;;;;;12.02;10.07;;;;;;;;;;5057305;28;20063;-72
2022/07/31 10:48:59;;;;;;;11.93;10.35;;;;;;;;;;5064928;28;20036;-72
2022/07/31 10:51:26;;;;;;;11.95;10.70;;;;;;;;;;5063817;28;20053;-72
2022/07/31 10:53:56;;;;;;;12.52;9.32;;;;;;;;;;5056970;28;20440;-72
2022/07/31 10:56:22;;;;;;;14.30;9.80;;;;;;;;;;5070575;28;20133;-72
2022/07/31 10:58:52;;;;;;;10.25;8.68;;;;;;;;;;5065369;28;20055;-72
2022/07/31 11:01:19;;;;;;;11.98;9.30;;;;;;;;;;5070152;28;20087;-72
2022/07/31 11:03:47;;;;;;;12.18;9.98;;;;;;;;;;5070188;28;20039;-72
2022/07/31 11:06:14;;;;;;;10.85;9.55;;;;;;;;;;5071301;28;20056;-72
2022/07/31 11:08:48;;;;;;;12.40;9.13;;;;;;;;;;5070758;28;20045;-73
2022/07/31 11:11:14;;;;;;;10.93;9.07;;;;;;;;;;5072650;28;20044;-72
2022/07/31 11:13:49;;;;;;;13.88;9.52;;;;;;;;;;5066013;28;20040;-72
2022/07/31 11:16:16;;;;;;;13.13;8.93;;;;;;;;;;5070041;28;20131;-72
2022/07/31 11:18:44;;;;;;;12.63;9.70;;;;;;;;;;5071811;28;20412;-73
2022/07/31 11:21:10;;;;;;;11.93;9.15;;;;;;;;;;5065969;28;20044;-73
2022/07/31 11:23:37;;;;;;;13.00;8.93;;;;;;;;;;5064287;28;20402;-72
2022/07/31 11:26:05;;;;;;;12.95;9.13;;;;;;;;;;5067992;28;20494;-72
2022/07/31 11:28:31;;;;;;;12.43;8.85;;;;;;;;;;5064046;28;20078;-71
2022/07/31 11:31:01;;;;;;;11.95;9.70;;;;;;;;;;5064259;28;20048;-73
2022/07/31 11:33:28;;;;;;;11.23;8.48;;;;;;;;;;5062758;28;20517;-71
2022/07/31 11:35:54;;;;;;;11.93;9.60;;;;;;;;;;5063908;28;20141;-71
2022/07/31 11:38:26;;;;;;;13.00;10.32;;;;;;;;;;5064158;28;20052;-72
2022/07/31 11:40:52;;;;;;;13.73;10.80;;;;;;;;;;5067956;28;20040;-72
2022/07/31 11:43:18;;;;;;;15.45;11.63;;;;;;;;;;5068604;28;20502;-72
2022/07/31 11:45:45;;;;;;;12.90;11.30;;;;;;;;;;5067881;28;20076;-72
2022/07/31 11:48:13;;;;;;;14.02;11.57;;;;;;;;;;5049261;28;20045;-72
2022/07/31 11:50:40;;;;;;;13.98;11.60;;;;;;;;;;5067848;28;20083;-72
2022/07/31 11:53:06;;;;;;;17.23;12.48;;;;;;;;;;5064602;28;20112;-72
2022/07/31 11:55:43;;;;;;;15.05;13.23;;;;;;;;;;5065708;28;20422;-72
2022/07/31 11:58:10;;;;;;;14.77;13.23;;;;;;;;;;5064741;28;20037;-72
2022/07/31 12:00:45;;;;;;;19.65;14.35;;;;;;;;;;5065153;28;20131;-72
2022/07/31 12:03:11;;;;;;;23.00;15.65;;;;;;;;;;5067599;28;20040;-72
2022/07/31 12:05:44;;;;;;;16.85;14.45;;;;;;;;;;5067593;28;20387;-72
2022/07/31 12:08:11;;;;;;;19.45;16.05;;;;;;;;;;5067978;28;21622;-72
2022/07/31 12:10:38;;;;;;;19.80;16.52;;;;;;;;;;5065384;28;20085;-72
2022/07/31 12:13:05;;;;;;;20.38;16.23;;;;;;;;;;5071036;28;20449;-73
2022/07/31 12:15:31;;;;;;;17.45;15.55;;;;;;;;;;5067879;28;20074;-72
2022/07/31 12:18:01;;;;;;;19.15;16.33;;;;;;;;;;5065841;28;20471;-72
2022/07/31 12:20:29;;;;;;;17.58;14.50;;;;;;;;;;5068840;28;20072;-73
2022/07/31 12:22:58;;;;;;;17.70;14.68;;;;;;;;;;5068146;28;20437;-72
2022/07/31 12:25:25;;;;;;;17.02;14.65;;;;;;;;;;5070163;28;20041;-72
2022/07/31 12:27:54;;;;;;;19.45;16.05;;;;;;;;;;5072290;28;20132;-73
2022/07/31 12:30:23;;;;;;;18.05;15.82;;;;;;;;;;5075898;28;20037;-73
2022/07/31 12:32:50;;;;;;;17.63;15.30;;;;;;;;;;5062823;28;20037;-73
2022/07/31 12:35:16;;;;;;;18.83;15.30;;;;;;;;;;5075811;28;20136;-73
2022/07/31 12:37:43;;;;;;;17.40;15.60;;;;;;;;;;5074094;28;20059;-73
2022/07/31 12:40:10;;;;;;;17.98;16.08;;;;;;;;;;5072976;28;20655;-73
2022/07/31 12:42:37;;;;;;;19.83;17.73;;;;;;;;;;5070876;28;20048;-73
2022/07/31 12:45:05;;;;;;;20.77;18.75;;;;;;;;;;5062269;28;20840;-73
2022/07/31 12:47:33;;;;;;;22.15;19.60;;;;;;;;;;5066750;28;20576;-72
2022/07/31 12:50:00;;;;;;;21.67;19.55;;;;;;;;;;5066404;28;20517;-73
2022/07/31 12:52:30;;;;;;;23.73;21.33;;;;;;;;;;5066848;28;20505;-72
2022/07/31 12:55:01;;;;;;;24.95;22.45;;;;;;;;;;5066762;28;20048;-73
2022/07/31 12:57:28;;;;;;;24.52;22.15;;;;;;;;;;5074237;28;20556;-74
2022/07/31 13:00:02;;;;;;;24.13;21.58;;;;;;;;;;5073249;28;20669;-74
2022/07/31 13:02:29;;;;;;;23.15;20.92;;;;;;;;;;5074192;28;20052;-72
2022/07/31 13:04:55;;;;;;;24.27;21.77;;;;;;;;;;5073537;28;20504;-72
2022/07/31 13:07:21;;;;;;;22.85;20.65;;;;;;;;;;5074856;28;20516;-73
2022/07/31 13:09:47;;;;;;;24.50;22.10;;;;;;;;;;5073428;28;20705;-72
2022/07/31 13:12:13;;;;;;;23.77;21.38;;;;;;;;;;5069056;28;20067;-72
2022/07/31 13:14:39;;;;;;;24.75;20.83;;;;;;;;;;5073580;28;20063;-72
2022/07/31 13:17:06;;;;;;;22.77;20.50;;;;;;;;;;5071445;28;20041;-71
2022/07/31 13:19:32;;;;;;;24.65;22.35;;;;;;;;;;5069492;28;20402;-72
2022/07/31 13:21:58;;;;;;;22.08;19.98;;;;;;;;;;5074749;28;20399;-72
2022/07/31 13:24:24;;;;;;;22.38;20.27;;;;;;;;;;5074752;28;20513;-71
2022/07/31 13:26:51;;;;;;;24.02;21.73;;;;;;;;;;5073038;28;20044;-72
2022/07/31 13:29:17;;;;;;;23.63;21.23;;;;;;;;;;5074739;28;20044;-71
2022/07/31 13:31:44;;;;;;;23.42;20.90;;;;;;;;;;5073704;28;20067;-72
2022/07/31 13:34:10;;;;;;;21.85;19.63;;;;;;;;;;5073248;28;20055;-72
2022/07/31 13:36:36;;;;;;;22.67;20.50;;;;;;;;;;5074488;28;20049;-72
2022/07/31 13:39:02;;;;;;;22.20;20.13;;;;;;;;;;5073894;28;20093;-73
2022/07/31 13:41:29;;;;;;;22.67;20.38;;;;;;;;;;5073847;28;20406;-72
2022/07/31 13:43:56;;;;;;;23.20;20.90;;;;;;;;;;5064404;28;20053;-72
2022/07/31 13:46:23;;;;;;;21.35;19.23;;;;;;;;;;5071526;28;20048;-71
2022/07/31 13:48:50;;;;;;;22.08;20.10;;;;;;;;;;5073532;28;20052;-72
2022/07/31 13:51:16;;;;;;;23.75;21.45;;;;;;;;;;5073680;28;20090;-73
2022/07/31 13:53:42;;;;;;;22.50;20.23;;;;;;;;;;5089942;28;20052;-72
2022/07/31 13:56:09;;;;;;;21.10;18.98;;;;;;;;;;5054126;28;20441;-73
2022/07/31 13:58:35;;;;;;;21.95;19.80;;;;;;;;;;5054139;28;20498;-73
2022/07/31 14:01:02;;;;;;;20.65;18.55;;;;;;;;;;5062656;28;20041;-74
2022/07/31 14:03:28;;;;;;;21.52;19.42;;;;;;;;;;5070541;28;20052;-74
2022/07/31 14:05:54;;;;;;;19.25;17.30;;;;;;;;;;5071402;28;20052;-74
2022/07/31 14:08:20;;;;;;;22.27;20.08;;;;;;;;;;5074086;28;20044;-74
2022/07/31 14:10:47;;;;;;;18.65;16.67;;;;;;;;;;5071408;28;20123;-74
2022/07/31 14:13:13;;;;;;;20.83;18.75;;;;;;;;;;5072279;28;20047;-73
2022/07/31 14:15:40;;;;;;;20.02;18.02;;;;;;;;;;5072849;28;20119;-73
2022/07/31 14:18:06;;;;;;;18.08;16.10;;;;;;;;;;5072514;28;20036;-74
2022/07/31 14:20:33;;;;;;;19.23;17.42;;;;;;;;;;5073589;28;20040;-73
2022/07/31 14:23:01;;;;;;;18.17;16.35;;;;;;;;;;5072647;28;20036;-73
2022/07/31 14:25:27;;;;;;;18.75;16.77;;;;;;;;;;5070752;28;20437;-73
2022/07/31 14:27:53;;;;;;;16.15;14.05;;;;;;;;;;5072869;28;20055;-72
2022/07/31 14:30:20;;;;;;;16.15;14.55;;;;;;;;;;5073496;28;20102;-73
2022/07/31 14:32:47;;;;;;;15.68;14.07;;;;;;;;;;5070309;28;21613;-72